Terminal Aerodrome Forecast
Issued by NWS Nashville, TN

Home | Current Version | Previous Version | Text Only | Print | Product List | Glossary On
Versions: 1 2 3 4 5 6 7 8 9 10 11 12 13 14 15
000
FTUS44 KOHX 271730
TAFBNA
TAF
KBNA 271730Z 2718/2818 23003KT P6SM VCTS SCT040CB BKN100
     FM280100 18003KT P6SM SCT050 BKN070
     FM280900 20002KT 6SM BR VCSH BKN025 OVC050
     FM281100 22004KT 2SM -SHRA BR VCTS BKN007 OVC020CB=

USA.gov is the U.S. government's official web portal to all federal, state and local government web resources and services.